Time;durP1;ratioP1;P1;durP2;ratioP2;P2;SDS_P1;SDS_P2;PMS_P1;PMS_P2;Temp;Humidity;BMP_temperature;BMP_pressure;BME280_temperature;BME280_humidity;BME280_pressure;Samples;Min_cycle;Max_cycle;Signal;HPM_P1;HPM_P2
2023/05/28 00:01:37;;;;;;;8.35;4.05;;;;;;;;;;5022605;28;20552;-66
2023/05/28 00:04:02;;;;;;;12.02;3.97;;;;;;;;;;5022274;28;20021;-66
2023/05/28 00:06:27;;;;;;;6.30;3.75;;;;;;;;;;5020352;28;20461;-66
2023/05/28 00:08:53;;;;;;;8.18;4.43;;;;;;;;;;5004582;28;20045;-66
2023/05/28 00:11:18;;;;;;;15.43;5.07;;;;;;;;;;5021627;28;20532;-66
2023/05/28 00:13:44;;;;;;;9.35;4.50;;;;;;;;;;5022624;28;20043;-66
2023/05/28 00:16:12;;;;;;;8.98;4.00;;;;;;;;;;5003492;28;20042;-66
2023/05/28 00:18:38;;;;;;;7.40;3.85;;;;;;;;;;5021737;28;20041;-66
2023/05/28 00:21:04;;;;;;;5.75;3.50;;;;;;;;;;5021917;28;20080;-66
2023/05/28 00:23:29;;;;;;;10.65;4.03;;;;;;;;;;5022984;28;20635;-66
2023/05/28 00:25:55;;;;;;;11.57;5.00;;;;;;;;;;5003313;28;20041;-65
2023/05/28 00:28:23;;;;;;;10.43;3.83;;;;;;;;;;5021153;28;20433;-66
2023/05/28 00:30:48;;;;;;;8.70;3.95;;;;;;;;;;5002666;28;20512;-66
2023/05/28 00:33:14;;;;;;;5.47;3.40;;;;;;;;;;5022450;28;20029;-66
2023/05/28 00:35:41;;;;;;;14.27;4.47;;;;;;;;;;5021177;28;20034;-66
2023/05/28 00:38:06;;;;;;;10.38;3.95;;;;;;;;;;5022848;28;20430;-66
2023/05/28 00:40:32;;;;;;;9.68;4.28;;;;;;;;;;5003218;28;20045;-66
2023/05/28 00:42:57;;;;;;;4.90;3.80;;;;;;;;;;5022666;28;20080;-67
2023/05/28 00:45:23;;;;;;;7.38;3.53;;;;;;;;;;5001797;28;20049;-66
2023/05/28 00:47:49;;;;;;;6.93;3.42;;;;;;;;;;5022026;28;20033;-66
2023/05/28 00:50:16;;;;;;;6.73;4.40;;;;;;;;;;5021788;28;20228;-66
2023/05/28 00:52:43;;;;;;;5.63;3.33;;;;;;;;;;5003826;28;20540;-66
2023/05/28 00:55:13;;;;;;;11.05;3.90;;;;;;;;;;4994167;28;20400;-66
2023/05/28 00:57:39;;;;;;;6.80;3.70;;;;;;;;;;5003414;28;20477;-66
2023/05/28 01:00:05;;;;;;;8.15;3.83;;;;;;;;;;5019396;28;20049;-66
2023/05/28 01:02:30;;;;;;;7.00;3.85;;;;;;;;;;5021434;28;20042;-66
2023/05/28 01:04:56;;;;;;;6.80;4.13;;;;;;;;;;5019837;28;20329;-67
2023/05/28 01:07:24;;;;;;;6.85;3.50;;;;;;;;;;5022891;28;20053;-66
2023/05/28 01:09:53;;;;;;;7.20;3.75;;;;;;;;;;5042100;28;20041;-66
2023/05/28 01:12:19;;;;;;;7.03;3.60;;;;;;;;;;5044376;28;20385;-67
2023/05/28 01:14:45;;;;;;;8.20;3.60;;;;;;;;;;5043359;28;20374;-66
2023/05/28 01:17:11;;;;;;;9.47;4.07;;;;;;;;;;5041465;28;20069;-66
2023/05/28 01:19:37;;;;;;;5.43;3.40;;;;;;;;;;5029013;28;20127;-66
2023/05/28 01:22:04;;;;;;;8.07;3.87;;;;;;;;;;5040259;28;20040;-66
2023/05/28 01:24:32;;;;;;;8.47;4.50;;;;;;;;;;5039842;28;20094;-66
2023/05/28 01:26:58;;;;;;;8.27;3.60;;;;;;;;;;5038844;28;20045;-67
2023/05/28 01:29:23;;;;;;;6.60;4.13;;;;;;;;;;5041164;28;20149;-65
2023/05/28 01:31:49;;;;;;;7.70;4.33;;;;;;;;;;5039245;28;20524;-66
2023/05/28 01:34:14;;;;;;;6.00;3.47;;;;;;;;;;5040293;28;20033;-66
2023/05/28 01:36:45;;;;;;;7.33;3.27;;;;;;;;;;5042138;28;20047;-67
2023/05/28 01:39:13;;;;;;;12.77;4.77;;;;;;;;;;5039240;28;20051;-65
2023/05/28 01:41:38;;;;;;;9.47;3.67;;;;;;;;;;5039997;28;20043;-66
2023/05/28 01:44:06;;;;;;;5.05;2.97;;;;;;;;;;5029447;28;20086;-66
2023/05/28 01:46:33;;;;;;;6.13;3.53;;;;;;;;;;5039383;28;20618;-66
2023/05/28 01:48:59;;;;;;;7.80;3.60;;;;;;;;;;5041485;28;20419;-66
2023/05/28 01:51:24;;;;;;;11.03;3.53;;;;;;;;;;5039472;28;20087;-65
2023/05/28 01:53:50;;;;;;;9.03;3.70;;;;;;;;;;5039880;28;20060;-66
2023/05/28 01:56:16;;;;;;;5.67;3.37;;;;;;;;;;5042845;28;20080;-66
2023/05/28 01:58:42;;;;;;;4.70;3.17;;;;;;;;;;5028638;28;20047;-66
2023/05/28 02:01:14;;;;;;;11.10;3.57;;;;;;;;;;5054578;28;20025;-65
2023/05/28 02:03:40;;;;;;;9.33;5.13;;;;;;;;;;5037183;28;20045;-66
2023/05/28 02:06:06;;;;;;;9.20;4.00;;;;;;;;;;5045102;28;20045;-66
2023/05/28 02:08:31;;;;;;;8.83;4.27;;;;;;;;;;5003143;28;20127;-65
2023/05/28 02:10:59;;;;;;;7.57;4.10;;;;;;;;;;5003359;28;20045;-66
2023/05/28 02:13:27;;;;;;;6.87;3.57;;;;;;;;;;5005054;28;20029;-65
2023/05/28 02:15:54;;;;;;;5.47;3.13;;;;;;;;;;5008015;28;20072;-65
2023/05/28 02:18:20;;;;;;;11.03;4.37;;;;;;;;;;5008119;28;20026;-67
2023/05/28 02:20:46;;;;;;;6.47;3.50;;;;;;;;;;5006805;28;20452;-66
2023/05/28 02:23:11;;;;;;;6.93;4.27;;;;;;;;;;4999747;28;20068;-65
2023/05/28 02:25:36;;;;;;;11.50;4.37;;;;;;;;;;5020257;28;20115;-65
2023/05/28 02:28:03;;;;;;;8.70;3.97;;;;;;;;;;5022918;28;20061;-65
2023/05/28 02:30:31;;;;;;;7.80;3.40;;;;;;;;;;5002681;28;20060;-66
2023/05/28 02:32:56;;;;;;;7.50;3.47;;;;;;;;;;5015746;28;20500;-65
2023/05/28 02:35:25;;;;;;;7.13;3.93;;;;;;;;;;5019558;28;20038;-67
2023/05/28 02:37:51;;;;;;;8.97;4.20;;;;;;;;;;5021200;28;20045;-64
2023/05/28 02:40:16;;;;;;;9.50;4.77;;;;;;;;;;5004091;28;20364;-64
2023/05/28 02:42:42;;;;;;;6.27;3.63;;;;;;;;;;5018757;28;20430;-65
2023/05/28 02:45:09;;;;;;;8.50;3.83;;;;;;;;;;5002533;28;20504;-65
2023/05/28 02:47:41;;;;;;;6.90;3.87;;;;;;;;;;5001655;28;20054;-65
2023/05/28 02:50:07;;;;;;;9.37;4.00;;;;;;;;;;5021425;28;20111;-65
2023/05/28 02:52:52;;;;;;;11.00;3.47;;;;;;;;;;5004389;28;20148;-65
2023/05/28 02:55:17;;;;;;;6.03;3.70;;;;;;;;;;5024408;28;20119;-64
2023/05/28 02:57:43;;;;;;;6.53;4.07;;;;;;;;;;5023859;28;20045;-66
2023/05/28 03:00:10;;;;;;;7.33;3.33;;;;;;;;;;5007149;28;20043;-66
2023/05/28 03:02:36;;;;;;;10.00;4.07;;;;;;;;;;4995182;28;20137;-64
2023/05/28 03:05:02;;;;;;;9.23;4.13;;;;;;;;;;4995582;28;20033;-65
2023/05/28 03:07:29;;;;;;;8.10;3.77;;;;;;;;;;5026987;28;20222;-64
2023/05/28 03:09:54;;;;;;;7.43;3.20;;;;;;;;;;5042682;28;20033;-65
2023/05/28 03:12:19;;;;;;;6.77;3.70;;;;;;;;;;5031053;28;20480;-65
2023/05/28 03:14:45;;;;;;;5.90;3.13;;;;;;;;;;5044433;28;20470;-65
2023/05/28 03:17:11;;;;;;;5.87;3.50;;;;;;;;;;5042674;28;20051;-65
2023/05/28 03:19:36;;;;;;;8.50;4.40;;;;;;;;;;5042513;28;20051;-65
2023/05/28 03:22:02;;;;;;;9.27;4.40;;;;;;;;;;5042525;28;20123;-64
2023/05/28 03:24:34;;;;;;;5.27;3.53;;;;;;;;;;5042052;28;20037;-64
2023/05/28 03:27:01;;;;;;;6.03;3.63;;;;;;;;;;5042717;28;20171;-64
2023/05/28 03:29:27;;;;;;;6.33;3.70;;;;;;;;;;5031620;28;20036;-63
2023/05/28 03:32:00;;;;;;;7.13;3.97;;;;;;;;;;5041049;28;20063;-65
2023/05/28 03:34:26;;;;;;;7.53;3.83;;;;;;;;;;5040697;28;20424;-63
2023/05/28 03:36:51;;;;;;;10.73;3.60;;;;;;;;;;5040088;28;20045;-65
2023/05/28 03:39:18;;;;;;;7.77;3.70;;;;;;;;;;5043990;28;20033;-66
2023/05/28 03:41:44;;;;;;;7.37;4.00;;;;;;;;;;5058277;28;20244;-66
2023/05/28 03:44:10;;;;;;;7.83;3.93;;;;;;;;;;5040326;28;20044;-64
2023/05/28 03:46:36;;;;;;;11.40;3.63;;;;;;;;;;5025300;28;20537;-64
2023/05/28 03:49:02;;;;;;;8.60;3.20;;;;;;;;;;5043784;28;20144;-65
2023/05/28 03:51:28;;;;;;;7.87;3.60;;;;;;;;;;5031133;28;20041;-65
2023/05/28 03:53:56;;;;;;;6.90;3.20;;;;;;;;;;5043750;28;20036;-64
2023/05/28 03:56:23;;;;;;;7.10;3.07;;;;;;;;;;5032768;28;20059;-64
2023/05/28 03:58:48;;;;;;;4.90;3.27;;;;;;;;;;5043471;28;20126;-65
2023/05/28 04:01:14;;;;;;;10.30;3.83;;;;;;;;;;5041132;28;20061;-65
2023/05/28 04:03:43;;;;;;;7.73;3.17;;;;;;;;;;5041304;28;20366;-65
2023/05/28 04:06:08;;;;;;;10.03;3.60;;;;;;;;;;5040667;28;20132;-64
2023/05/28 04:08:34;;;;;;;6.90;3.23;;;;;;;;;;5023152;28;20041;-64
2023/05/28 04:11:00;;;;;;;3.80;2.90;;;;;;;;;;5004500;28;20044;-65
2023/05/28 04:13:25;;;;;;;8.87;3.67;;;;;;;;;;5007249;28;20045;-65
2023/05/28 04:15:53;;;;;;;9.03;4.00;;;;;;;;;;5022147;28;20060;-65
2023/05/28 04:18:19;;;;;;;7.78;3.45;;;;;;;;;;5022290;28;20035;-65
2023/05/28 04:20:45;;;;;;;9.43;3.90;;;;;;;;;;5024940;28;20040;-65
2023/05/28 04:23:10;;;;;;;7.47;3.53;;;;;;;;;;5023190;28;20044;-66
2023/05/28 04:25:36;;;;;;;7.72;4.40;;;;;;;;;;4990287;28;20443;-65
2023/05/28 04:28:02;;;;;;;8.10;4.47;;;;;;;;;;5006027;28;20132;-65
2023/05/28 04:30:28;;;;;;;8.10;3.90;;;;;;;;;;5023149;28;20049;-65
2023/05/28 04:32:57;;;;;;;5.30;3.35;;;;;;;;;;5007599;28;20249;-65
2023/05/28 04:35:22;;;;;;;5.18;3.47;;;;;;;;;;5006222;28;20352;-65
2023/05/28 04:37:50;;;;;;;9.13;3.97;;;;;;;;;;5022356;28;20044;-65
2023/05/28 04:40:16;;;;;;;7.55;4.25;;;;;;;;;;5004491;28;20041;-65
2023/05/28 04:42:42;;;;;;;7.00;3.70;;;;;;;;;;4989493;28;20065;-65
2023/05/28 04:45:09;;;;;;;10.75;4.38;;;;;;;;;;4995115;28;20042;-65
2023/05/28 04:47:38;;;;;;;6.93;3.58;;;;;;;;;;4995758;28;20123;-65
2023/05/28 04:50:06;;;;;;;8.00;3.50;;;;;;;;;;5003571;28;20041;-64
2023/05/28 04:52:32;;;;;;;7.68;3.35;;;;;;;;;;5010006;28;20179;-65
2023/05/28 04:54:58;;;;;;;7.15;4.00;;;;;;;;;;5005422;28;20479;-65
2023/05/28 04:57:24;;;;;;;8.73;3.97;;;;;;;;;;5022014;28;20065;-65
2023/05/28 04:59:50;;;;;;;6.80;3.67;;;;;;;;;;4989170;28;20044;-65
2023/05/28 05:02:19;;;;;;;6.25;3.40;;;;;;;;;;5003695;28;20038;-66
2023/05/28 05:04:45;;;;;;;7.70;3.47;;;;;;;;;;5023281;28;20041;-64
2023/05/28 05:07:16;;;;;;;7.55;3.78;;;;;;;;;;5021711;28;20055;-65
2023/05/28 05:09:42;;;;;;;7.57;4.18;;;;;;;;;;5041508;28;20063;-66
2023/05/28 05:12:08;;;;;;;11.02;3.85;;;;;;;;;;5038891;28;20045;-65
2023/05/28 05:14:37;;;;;;;9.07;4.55;;;;;;;;;;5041909;28;20574;-65
2023/05/28 05:17:03;;;;;;;7.18;4.47;;;;;;;;;;5042311;28;20498;-66
2023/05/28 05:19:28;;;;;;;6.95;4.10;;;;;;;;;;5055901;28;20455;-64
2023/05/28 05:21:54;;;;;;;6.00;3.72;;;;;;;;;;5048078;28;20555;-65
2023/05/28 05:24:20;;;;;;;7.50;4.30;;;;;;;;;;5041599;28;20095;-65
2023/05/28 05:26:46;;;;;;;7.05;4.82;;;;;;;;;;5040982;28;20588;-68
2023/05/28 05:29:11;;;;;;;5.07;3.95;;;;;;;;;;5040118;28;20481;-65
2023/05/28 05:31:37;;;;;;;7.88;3.88;;;;;;;;;;5044848;28;20112;-65
2023/05/28 05:34:05;;;;;;;6.20;3.97;;;;;;;;;;5022905;28;20418;-65
2023/05/28 05:36:33;;;;;;;6.00;4.00;;;;;;;;;;5040946;28;20048;-65
2023/05/28 05:39:20;;;;;;;9.98;4.47;;;;;;;;;;5041163;28;20410;-65
2023/05/28 05:42:21;;;;;;;8.90;4.55;;;;;;;;;;5027586;28;20159;-65
2023/05/28 05:44:49;;;;;;;7.93;4.60;;;;;;;;;;5041021;28;20043;-65
2023/05/28 05:47:15;;;;;;;6.10;3.78;;;;;;;;;;5040564;28;20391;-66
2023/05/28 05:49:40;;;;;;;4.53;3.63;;;;;;;;;;5039426;28;20049;-65
2023/05/28 05:52:06;;;;;;;7.13;4.65;;;;;;;;;;5020839;28;20076;-65
2023/05/28 05:54:34;;;;;;;6.70;4.05;;;;;;;;;;5041036;28;20045;-65
2023/05/28 05:57:02;;;;;;;6.85;3.10;;;;;;;;;;5027903;28;20075;-65
2023/05/28 05:59:29;;;;;;;5.80;3.25;;;;;;;;;;5030551;28;20041;-65
2023/05/28 06:01:55;;;;;;;7.25;3.85;;;;;;;;;;5028885;28;20029;-63
2023/05/28 06:04:22;;;;;;;4.50;3.25;;;;;;;;;;5040456;28;20071;-64
2023/05/28 06:07:06;;;;;;;4.40;3.33;;;;;;;;;;5038045;28;20052;-64
2023/05/28 06:09:53;;;;;;;6.40;3.92;;;;;;;;;;5024403;28;20063;-64
2023/05/28 06:12:25;;;;;;;8.05;3.90;;;;;;;;;;5038235;28;20045;-64
2023/05/28 06:14:50;;;;;;;7.03;4.25;;;;;;;;;;5038201;28;20605;-63
2023/05/28 06:17:17;;;;;;;6.72;3.50;;;;;;;;;;5039401;28;20063;-64
2023/05/28 06:19:43;;;;;;;6.35;3.83;;;;;;;;;;5041157;28;20539;-64
2023/05/28 06:22:10;;;;;;;5.03;3.55;;;;;;;;;;5040497;28;20041;-65
2023/05/28 06:24:38;;;;;;;4.88;3.42;;;;;;;;;;5045011;28;20127;-64
2023/05/28 06:27:04;;;;;;;7.25;3.65;;;;;;;;;;5042339;28;20041;-63
2023/05/28 06:29:30;;;;;;;7.68;3.72;;;;;;;;;;5042266;28;20033;-65
2023/05/28 06:31:55;;;;;;;6.53;3.92;;;;;;;;;;5050794;28;20510;-64
2023/05/28 06:34:21;;;;;;;3.60;3.17;;;;;;;;;;5044094;28;20040;-64
2023/05/28 06:36:47;;;;;;;5.55;3.70;;;;;;;;;;5026538;28;20068;-64
2023/05/28 06:39:12;;;;;;;4.05;3.38;;;;;;;;;;5043149;28;20110;-65
2023/05/28 06:41:45;;;;;;;8.05;4.20;;;;;;;;;;5032301;28;20476;-64
2023/05/28 06:44:21;;;;;;;5.82;3.97;;;;;;;;;;5043113;28;20044;-64
2023/05/28 06:46:55;;;;;;;5.43;3.67;;;;;;;;;;5043729;28;20028;-63
2023/05/28 06:49:21;;;;;;;4.65;3.33;;;;;;;;;;5042001;28;20114;-64
2023/05/28 06:51:48;;;;;;;6.05;4.63;;;;;;;;;;5043773;28;20037;-63
2023/05/28 06:54:13;;;;;;;5.28;3.50;;;;;;;;;;5042140;28;20029;-64
2023/05/28 06:56:42;;;;;;;5.85;3.67;;;;;;;;;;5043117;28;20040;-64
2023/05/28 06:59:34;;;;;;;3.85;3.53;;;;;;;;;;5041101;28;20024;-64
2023/05/28 07:02:20;;;;;;;;;;;;;;;;;;5044109;28;20037;-63
2023/05/28 07:04:54;;;;;;;6.88;3.58;;;;;;;;;;5041155;28;20490;-64
2023/05/28 07:07:23;;;;;;;4.55;3.47;;;;;;;;;;5041816;28;20087;-64
2023/05/28 07:09:49;;;;;;;4.18;3.58;;;;;;;;;;5058219;28;20060;-64
2023/05/28 07:12:15;;;;;;;8.55;4.20;;;;;;;;;;5042285;28;20044;-64
2023/05/28 07:14:45;;;;;;;5.75;3.50;;;;;;;;;;5041438;28;20169;-64
2023/05/28 07:17:11;;;;;;;5.40;4.05;;;;;;;;;;5058617;28;20067;-64
2023/05/28 07:19:42;;;;;;;4.53;3.47;;;;;;;;;;5042295;28;20503;-65
2023/05/28 07:22:11;;;;;;;9.10;4.03;;;;;;;;;;5059117;28;20425;-64
2023/05/28 07:24:38;;;;;;;6.15;3.60;;;;;;;;;;5043847;28;20025;-65
2023/05/28 07:27:06;;;;;;;5.88;3.75;;;;;;;;;;5043364;28;20384;-65
2023/05/28 07:29:32;;;;;;;4.35;3.95;;;;;;;;;;5057831;28;20132;-65
2023/05/28 07:31:57;;;;;;;8.85;3.60;;;;;;;;;;5041031;28;20037;-64
2023/05/28 07:34:25;;;;;;;8.00;5.18;;;;;;;;;;5042864;28;20037;-65
2023/05/28 07:36:50;;;;;;;5.68;3.65;;;;;;;;;;5045126;28;20102;-65
2023/05/28 07:39:16;;;;;;;8.65;4.20;;;;;;;;;;5025039;28;20037;-65
2023/05/28 07:41:43;;;;;;;7.05;3.97;;;;;;;;;;5040617;28;20479;-65
2023/05/28 07:44:17;;;;;;;6.47;4.35;;;;;;;;;;5041658;28;20041;-64
2023/05/28 07:46:42;;;;;;;5.72;4.30;;;;;;;;;;5040865;28;20094;-65
2023/05/28 07:49:23;;;;;;;5.90;4.05;;;;;;;;;;5040637;28;20056;-66
2023/05/28 07:51:49;;;;;;;4.68;4.07;;;;;;;;;;5040412;28;20044;-65
2023/05/28 07:54:24;;;;;;;5.25;3.90;;;;;;;;;;5041850;28;20040;-64
2023/05/28 07:56:51;;;;;;;5.82;3.85;;;;;;;;;;5042052;28;20094;-64
2023/05/28 07:59:25;;;;;;;6.95;4.50;;;;;;;;;;5041590;28;20045;-63
2023/05/28 08:01:52;;;;;;;5.47;4.10;;;;;;;;;;5038653;28;20044;-63
2023/05/28 08:04:18;;;;;;;6.00;3.85;;;;;;;;;;5039915;28;20243;-64
2023/05/28 08:06:47;;;;;;;5.50;3.70;;;;;;;;;;5040011;28;20100;-61
2023/05/28 08:09:17;;;;;;;5.75;4.22;;;;;;;;;;5040518;28;20045;-63
2023/05/28 08:11:45;;;;;;;7.20;4.90;;;;;;;;;;5039533;28;20480;-62
2023/05/28 08:14:12;;;;;;;5.25;4.55;;;;;;;;;;5045201;28;20114;-63
2023/05/28 08:16:40;;;;;;;6.28;4.80;;;;;;;;;;5041191;28;20482;-62
2023/05/28 08:19:06;;;;;;;7.88;4.32;;;;;;;;;;5043335;28;20381;-63
2023/05/28 08:21:32;;;;;;;7.00;4.53;;;;;;;;;;5041641;28;20510;-64
2023/05/28 08:24:00;;;;;;;10.68;5.95;;;;;;;;;;5040943;28;20086;-62
2023/05/28 08:26:27;;;;;;;6.50;4.13;;;;;;;;;;5040150;28;20037;-62
2023/05/28 08:28:53;;;;;;;11.13;5.65;;;;;;;;;;5023231;28;20443;-63
2023/05/28 08:31:22;;;;;;;6.30;4.88;;;;;;;;;;5056181;28;20063;-63
2023/05/28 08:33:57;;;;;;;8.68;4.05;;;;;;;;;;5041164;28;20037;-64
2023/05/28 08:36:23;;;;;;;6.90;4.78;;;;;;;;;;5039564;28;20155;-65
2023/05/28 08:38:53;;;;;;;9.30;5.22;;;;;;;;;;5043048;28;20409;-64
2023/05/28 08:41:23;;;;;;;5.40;4.50;;;;;;;;;;5039349;28;20036;-65
2023/05/28 08:43:51;;;;;;;5.65;5.15;;;;;;;;;;5030320;28;20082;-63
2023/05/28 08:46:18;;;;;;;7.65;4.80;;;;;;;;;;5040702;28;20079;-63
2023/05/28 08:49:03;;;;;;;7.00;4.47;;;;;;;;;;5040024;28;20040;-64
2023/05/28 08:51:33;;;;;;;6.63;5.93;;;;;;;;;;5038357;28;20090;-64
2023/05/28 08:53:59;;;;;;;7.57;4.55;;;;;;;;;;5038793;28;20033;-64
2023/05/28 08:56:28;;;;;;;4.97;4.45;;;;;;;;;;5028672;28;20041;-63
2023/05/28 08:58:53;;;;;;;8.50;6.85;;;;;;;;;;5040222;28;20111;-63
2023/05/28 09:01:19;;;;;;;5.25;4.53;;;;;;;;;;5039426;28;20039;-64
2023/05/28 09:04:03;;;;;;;7.85;4.45;;;;;;;;;;5029416;28;20555;-64
2023/05/28 09:06:38;;;;;;;7.20;4.88;;;;;;;;;;5036519;28;20500;-64
2023/05/28 09:09:07;;;;;;;8.85;4.95;;;;;;;;;;5002907;28;20057;-64
2023/05/28 09:11:44;;;;;;;7.82;5.10;;;;;;;;;;5002923;28;20436;-64
2023/05/28 09:14:10;;;;;;;7.03;4.55;;;;;;;;;;5022322;28;20044;-64
2023/05/28 09:16:39;;;;;;;5.50;4.80;;;;;;;;;;5002128;28;20049;-64
2023/05/28 09:19:07;;;;;;;10.88;5.38;;;;;;;;;;5003279;28;20111;-63
2023/05/28 09:21:33;;;;;;;7.05;5.07;;;;;;;;;;5003649;28;20531;-63
2023/05/28 09:24:01;;;;;;;9.23;6.82;;;;;;;;;;5020318;28;20040;-63
2023/05/28 09:26:59;;;;;;;8.20;5.00;;;;;;;;;;5002100;28;20650;-64
2023/05/28 09:29:32;;;;;;;7.07;5.38;;;;;;;;;;5004016;28;20052;-62
2023/05/28 09:31:59;;;;;;;9.10;4.95;;;;;;;;;;5001850;28;20045;-64
2023/05/28 09:34:28;;;;;;;10.90;4.93;;;;;;;;;;5019431;28;20503;-65
2023/05/28 09:36:58;;;;;;;9.18;4.63;;;;;;;;;;5021159;28;20033;-64
2023/05/28 09:39:27;;;;;;;7.43;5.30;;;;;;;;;;5019090;28;20037;-64
2023/05/28 09:42:03;;;;;;;9.18;5.00;;;;;;;;;;5019270;28;20057;-66
2023/05/28 09:44:29;;;;;;;6.68;4.65;;;;;;;;;;5007854;28;20041;-65
2023/05/28 09:46:54;;;;;;;7.32;4.82;;;;;;;;;;5020111;28;20037;-65
2023/05/28 09:49:20;;;;;;;7.25;4.55;;;;;;;;;;5000969;28;20060;-61
2023/05/28 09:51:47;;;;;;;6.25;4.45;;;;;;;;;;5017517;28;20119;-62
2023/05/28 09:54:14;;;;;;;6.93;5.05;;;;;;;;;;5018977;28;20077;-63
2023/05/28 09:56:42;;;;;;;6.95;4.80;;;;;;;;;;5005144;28;20136;-68
2023/05/28 09:59:09;;;;;;;6.07;4.80;;;;;;;;;;5019646;28;20060;-66
2023/05/28 10:01:41;;;;;;;7.18;4.95;;;;;;;;;;5022661;28;20093;-65
2023/05/28 10:04:08;;;;;;;7.45;5.10;;;;;;;;;;5022089;28;20091;-65
2023/05/28 10:06:35;;;;;;;6.30;4.70;;;;;;;;;;5025656;28;20026;-60
2023/05/28 10:09:02;;;;;;;8.65;4.45;;;;;;;;;;5031899;28;20098;-64
2023/05/28 10:11:29;;;;;;;7.03;4.55;;;;;;;;;;5044087;28;20138;-63
2023/05/28 10:13:56;;;;;;;11.63;4.88;;;;;;;;;;5043242;28;20511;-56
2023/05/28 10:16:22;;;;;;;7.90;5.45;;;;;;;;;;5043314;28;20033;-60
2023/05/28 10:18:48;;;;;;;9.07;5.28;;;;;;;;;;5043063;28;20037;-62
2023/05/28 10:21:14;;;;;;;10.27;7.03;;;;;;;;;;5045193;28;20037;-60
2023/05/28 10:23:40;;;;;;;11.20;5.43;;;;;;;;;;5043476;28;20033;-61
2023/05/28 10:26:09;;;;;;;7.90;5.82;;;;;;;;;;5043189;28;20036;-61
2023/05/28 10:28:35;;;;;;;6.80;5.13;;;;;;;;;;5043622;28;20048;-61
2023/05/28 10:31:04;;;;;;;7.07;5.30;;;;;;;;;;5044583;28;20076;-62
2023/05/28 10:33:40;;;;;;;8.57;4.95;;;;;;;;;;5043708;28;20037;-61
2023/05/28 10:36:09;;;;;;;5.28;4.82;;;;;;;;;;5042141;28;20247;-61
2023/05/28 10:38:40;;;;;;;8.98;4.80;;;;;;;;;;5043802;28;20056;-63
2023/05/28 10:41:06;;;;;;;6.10;4.53;;;;;;;;;;5043527;28;20039;-63
2023/05/28 10:43:38;;;;;;;10.75;4.68;;;;;;;;;;5043010;28;20048;-62
2023/05/28 10:46:29;;;;;;;7.45;4.68;;;;;;;;;;5043364;28;20029;-63
2023/05/28 10:49:06;;;;;;;6.28;4.63;;;;;;;;;;5038489;28;20536;-64
2023/05/28 10:51:51;;;;;;;9.23;5.82;;;;;;;;;;5043474;28;20091;-63
2023/05/28 10:54:24;;;;;;;6.63;4.78;;;;;;;;;;5043000;28;20037;-63
2023/05/28 10:57:05;;;;;;;8.63;5.07;;;;;;;;;;5044047;28;20045;-64
2023/05/28 10:59:50;;;;;;;6.97;5.38;;;;;;;;;;5042775;28;20063;-63
2023/05/28 11:02:35;;;;;;;9.18;4.93;;;;;;;;;;5044943;28;20037;-62
2023/05/28 11:05:02;;;;;;;12.95;5.70;;;;;;;;;;5042781;28;20055;-62
2023/05/28 11:07:29;;;;;;;7.32;4.97;;;;;;;;;;5042231;28;20053;-67
2023/05/28 11:09:58;;;;;;;9.55;4.85;;;;;;;;;;5043306;28;20340;-62
2023/05/28 11:12:26;;;;;;;9.63;4.95;;;;;;;;;;5042168;28;20445;-62
2023/05/28 11:14:55;;;;;;;7.80;4.82;;;;;;;;;;5042916;28;20093;-63
2023/05/28 11:17:20;;;;;;;10.20;5.75;;;;;;;;;;5042809;28;20028;-62
2023/05/28 11:19:47;;;;;;;8.80;4.70;;;;;;;;;;5041965;28;20470;-62
2023/05/28 11:22:13;;;;;;;7.57;5.03;;;;;;;;;;5043803;28;20033;-63
2023/05/28 11:24:59;;;;;;;5.25;4.30;;;;;;;;;;5043639;28;20094;-62
2023/05/28 11:27:31;;;;;;;8.25;4.50;;;;;;;;;;5047011;28;20420;-64
2023/05/28 11:29:57;;;;;;;6.28;4.45;;;;;;;;;;5039781;28;20037;-63
2023/05/28 11:32:23;;;;;;;8.20;5.15;;;;;;;;;;5042693;28;20142;-62
2023/05/28 11:34:49;;;;;;;7.50;4.68;;;;;;;;;;5041393;28;20448;-62
2023/05/28 11:37:15;;;;;;;5.13;4.63;;;;;;;;;;5043429;28;20054;-62
2023/05/28 11:39:54;;;;;;;9.13;5.13;;;;;;;;;;5041868;28;20310;-63
2023/05/28 11:42:20;;;;;;;11.45;5.50;;;;;;;;;;5041514;28;20032;-61
2023/05/28 11:44:46;;;;;;;10.32;5.28;;;;;;;;;;5042093;28;20474;-61
2023/05/28 11:47:12;;;;;;;10.25;5.95;;;;;;;;;;5041711;28;20044;-62
2023/05/28 11:49:38;;;;;;;8.07;4.57;;;;;;;;;;5042116;28;20072;-62
2023/05/28 11:52:04;;;;;;;7.68;4.35;;;;;;;;;;5042426;28;20670;-62
2023/05/28 11:54:29;;;;;;;10.98;4.95;;;;;;;;;;5042724;28;20029;-62
2023/05/28 11:56:54;;;;;;;7.63;5.22;;;;;;;;;;5043094;28;20523;-62
2023/05/28 11:59:20;;;;;;;10.35;5.55;;;;;;;;;;5042970;28;20939;-62
2023/05/28 12:01:46;;;;;;;6.03;4.78;;;;;;;;;;5042236;28;20033;-65
2023/05/28 12:04:11;;;;;;;8.63;4.43;;;;;;;;;;5042305;28;20459;-62
2023/05/28 12:06:51;;;;;;;10.57;5.00;;;;;;;;;;5042142;28;20065;-61
2023/05/28 12:09:19;;;;;;;10.60;5.40;;;;;;;;;;5042873;28;20081;-62
2023/05/28 12:12:01;;;;;;;9.63;5.40;;;;;;;;;;5043009;28;20044;-62
2023/05/28 12:14:26;;;;;;;6.65;5.28;;;;;;;;;;5040763;28;20031;-61
2023/05/28 12:16:54;;;;;;;8.93;4.57;;;;;;;;;;5038700;28;20169;-60
2023/05/28 12:19:20;;;;;;;10.13;5.53;;;;;;;;;;5039767;28;20759;-63
2023/05/28 12:21:45;;;;;;;9.52;5.57;;;;;;;;;;5039914;28;20105;-62
2023/05/28 12:24:15;;;;;;;7.95;4.70;;;;;;;;;;5038538;28;20102;-63
2023/05/28 12:26:43;;;;;;;5.80;4.00;;;;;;;;;;5039438;28;20029;-63
2023/05/28 12:29:09;;;;;;;9.20;5.00;;;;;;;;;;5038242;28;20056;-63
2023/05/28 12:31:37;;;;;;;6.93;5.38;;;;;;;;;;5040678;28;20514;-63
2023/05/28 12:34:02;;;;;;;8.73;4.47;;;;;;;;;;5040177;28;20556;-64
2023/05/28 12:36:32;;;;;;;8.98;4.68;;;;;;;;;;5040946;28;20410;-62
2023/05/28 12:38:58;;;;;;;7.82;4.13;;;;;;;;;;5040978;28;20041;-62
2023/05/28 12:41:23;;;;;;;6.10;4.40;;;;;;;;;;5038918;28;20098;-61
2023/05/28 12:43:49;;;;;;;6.55;4.03;;;;;;;;;;5041081;28;20123;-61
2023/05/28 12:46:15;;;;;;;7.13;4.53;;;;;;;;;;5039603;28;20108;-63
2023/05/28 12:48:40;;;;;;;7.88;5.38;;;;;;;;;;5041209;28;20028;-61
2023/05/28 12:51:09;;;;;;;7.63;5.03;;;;;;;;;;5040492;28;20049;-61
2023/05/28 12:53:34;;;;;;;7.00;5.32;;;;;;;;;;5040419;28;20484;-61
2023/05/28 12:56:00;;;;;;;9.75;5.68;;;;;;;;;;5029619;28;20102;-61
2023/05/28 12:58:27;;;;;;;10.13;5.45;;;;;;;;;;5041095;28;20041;-61
2023/05/28 13:00:52;;;;;;;8.25;5.72;;;;;;;;;;5038268;28;20029;-61
2023/05/28 13:03:18;;;;;;;10.88;5.30;;;;;;;;;;5041825;28;20033;-61
2023/05/28 13:05:43;;;;;;;8.35;5.80;;;;;;;;;;5040816;28;20395;-61
2023/05/28 13:08:09;;;;;;;9.27;5.78;;;;;;;;;;5025603;28;20053;-62
2023/05/28 13:10:34;;;;;;;7.97;5.13;;;;;;;;;;5019903;28;20029;-61
2023/05/28 13:13:01;;;;;;;7.47;5.82;;;;;;;;;;5021236;28;20119;-63
2023/05/28 13:15:26;;;;;;;9.10;6.13;;;;;;;;;;5019763;28;20069;-61
2023/05/28 13:17:52;;;;;;;7.43;4.82;;;;;;;;;;5020745;28;20052;-62
2023/05/28 13:20:17;;;;;;;7.00;4.93;;;;;;;;;;5019525;28;20568;-61
2023/05/28 13:22:43;;;;;;;6.80;5.05;;;;;;;;;;5020079;28;20540;-62
2023/05/28 13:25:11;;;;;;;13.48;5.07;;;;;;;;;;5020798;28;20048;-61
2023/05/28 13:27:37;;;;;;;11.02;5.88;;;;;;;;;;5019964;28;20515;-62
2023/05/28 13:30:03;;;;;;;6.80;4.75;;;;;;;;;;5021618;28;20029;-60
2023/05/28 13:32:29;;;;;;;9.00;5.10;;;;;;;;;;5021077;28;20056;-61
2023/05/28 13:34:54;;;;;;;10.63;5.95;;;;;;;;;;5021694;28;20041;-60
2023/05/28 13:37:20;;;;;;;10.27;6.63;;;;;;;;;;5019595;28;20073;-62
2023/05/28 13:39:48;;;;;;;6.47;5.05;;;;;;;;;;5021104;28;20223;-62
2023/05/28 13:42:19;;;;;;;12.18;6.68;;;;;;;;;;5020127;28;20030;-62
2023/05/28 13:44:46;;;;;;;14.40;6.25;;;;;;;;;;5022337;28;20029;-62
2023/05/28 13:47:11;;;;;;;9.00;5.43;;;;;;;;;;5021306;28;20057;-62
2023/05/28 13:49:37;;;;;;;10.15;5.93;;;;;;;;;;5020348;28;20178;-62
2023/05/28 13:52:03;;;;;;;9.23;5.38;;;;;;;;;;5020494;28;20045;-62
2023/05/28 13:54:29;;;;;;;11.30;6.20;;;;;;;;;;5021031;28;20116;-61
2023/05/28 13:56:54;;;;;;;8.23;5.15;;;;;;;;;;5019557;28;20439;-61
2023/05/28 13:59:20;;;;;;;7.57;6.18;;;;;;;;;;5021366;28;20493;-61
2023/05/28 14:01:45;;;;;;;7.25;6.00;;;;;;;;;;5019512;28;20092;-62
2023/05/28 14:04:11;;;;;;;7.18;5.47;;;;;;;;;;5019927;28;20052;-61
2023/05/28 14:06:36;;;;;;;10.93;6.15;;;;;;;;;;5020914;28;20058;-61
2023/05/28 14:09:04;;;;;;;7.15;5.68;;;;;;;;;;5018832;28;20340;-63
2023/05/28 14:11:30;;;;;;;9.60;5.35;;;;;;;;;;5018290;28;20045;-62
2023/05/28 14:13:55;;;;;;;8.95;5.70;;;;;;;;;;4994134;28;20473;-62
2023/05/28 14:16:20;;;;;;;10.23;6.25;;;;;;;;;;5019748;28;20368;-62
2023/05/28 14:18:46;;;;;;;8.55;5.97;;;;;;;;;;5019899;28;20053;-61
2023/05/28 14:21:11;;;;;;;9.30;5.90;;;;;;;;;;5018445;28;20033;-62
2023/05/28 14:23:40;;;;;;;12.43;6.38;;;;;;;;;;5020021;28;20033;-61
2023/05/28 14:26:08;;;;;;;7.00;5.53;;;;;;;;;;5019709;28;20064;-61
2023/05/28 14:28:36;;;;;;;7.57;5.68;;;;;;;;;;5003366;28;20032;-61
2023/05/28 14:31:02;;;;;;;10.15;6.97;;;;;;;;;;5019431;28;20565;-61
2023/05/28 14:33:31;;;;;;;7.75;5.72;;;;;;;;;;5020279;28;20072;-61
2023/05/28 14:35:56;;;;;;;9.18;6.30;;;;;;;;;;5000940;28;20098;-62
2023/05/28 14:38:22;;;;;;;11.32;6.35;;;;;;;;;;5001162;28;20037;-61
2023/05/28 14:40:47;;;;;;;8.48;6.35;;;;;;;;;;5019363;28;20124;-63
2023/05/28 14:43:13;;;;;;;11.48;7.45;;;;;;;;;;5020777;28;20465;-63
2023/05/28 14:45:38;;;;;;;9.55;6.35;;;;;;;;;;5001185;28;20123;-63